| time (UTC) | temp F | wind direction | speed MPH | gust MPH | rain 1hr in | rain 24hr in | rain mn in | humidity % | barometer mb |
| 20260510230041 | 69 | 360 | 0.0 | 2.0 | 0.00 | 0.00 | 0.00 | 23 | 1004.8 |
| 20260510224544 | 69 | 360 | 1.0 | 13.0 | 0.00 | 0.00 | 0.00 | 21 | 1004.9 |
| 20260510223035 | 68 | 360 | 1.0 | 11.0 | 0.00 | 0.00 | 0.00 | 22 | 1004.8 |
| 20260510221535 | 68 | 360 | 0.0 | 9.0 | 0.00 | 0.00 | 0.00 | 22 | 1005.1 |
| 20260510220034 | 70 | 360 | 2.0 | 11.0 | 0.00 | 0.00 | 0.00 | 20 | 1005.1 |
| 20260510214533 | 70 | 360 | 3.0 | 11.0 | 0.00 | 0.00 | 0.00 | 19 | 1005.2 |
| 20260510213029 | 70 | 360 | 5.0 | 16.0 | 0.00 | 0.00 | 0.00 | 20 | 1005.3 |
| 20260510211552 | 71 | 360 | 1.0 | 10.0 | 0.00 | 0.00 | 0.00 | 17 | 1005.2 |
| 20260510210030 | 71 | 360 | 4.0 | 13.0 | 0.00 | 0.00 | 0.00 | 17 | 1005.3 |
| 20260510204527 | 74 | 360 | 1.0 | 9.0 | 0.00 | 0.00 | 0.00 | 16 | 1005.2 |
| 20260510203031 | 74 | 360 | 2.0 | 11.0 | 0.00 | 0.00 | 0.00 | 13 | 1005.3 |
| 20260510201555 | 74 | 360 | 4.0 | 10.0 | 0.00 | 0.00 | 0.00 | 11 | 1005.2 |
| 20260510200056 | 74 | 360 | 0.0 | 6.0 | 0.00 | 0.00 | 0.00 | 14 | 1005.3 |
| 20260510194548 | 72 | 360 | 1.0 | 5.0 | 0.00 | 0.00 | 0.00 | 15 | 1005.4 |
| 20260510193044 | 72 | 360 | 2.0 | 6.0 | 0.00 | 0.00 | 0.00 | 15 | 1005.3 |
| 20260510191602 | 71 | 360 | 2.0 | 8.0 | 0.00 | 0.00 | 0.00 | 17 | 1005.4 |
| 20260510190050 | 72 | 360 | 0.0 | 8.0 | 0.00 | 0.00 | 0.00 | 16 | 1005.5 |
| 20260510184537 | 72 | 360 | 2.0 | 8.0 | 0.00 | 0.00 | 0.00 | 19 | 1005.4 |
| 20260510183031 | 71 | 360 | 1.0 | 5.0 | 0.00 | 0.00 | 0.00 | 20 | 1005.4 |
| 20260510181526 | 69 | 360 | 1.0 | 9.0 | 0.00 | 0.00 | 0.00 | 21 | 1005.6 |
| 20260510180022 | 69 | 360 | 0.0 | 5.0 | 0.00 | 0.00 | 0.00 | 23 | 1005.6 |
| 20260510174559 | 68 | 360 | 2.0 | 6.0 | 0.00 | 0.00 | 0.00 | 24 | 1005.6 |
| 20260510173045 | 68 | 360 | 1.0 | 5.0 | 0.00 | 0.00 | 0.00 | 26 | 1005.7 |
| 20260510171512 | 66 | 360 | 1.0 | 8.0 | 0.00 | 0.00 | 0.00 | 26 | 1005.9 |
| 20260510170007 | 66 | 360 | 1.0 | 5.0 | 0.00 | 0.00 | 0.00 | 28 | 1005.8 |
| 20260510164624 | 63 | 360 | 0.0 | 3.0 | 0.00 | 0.00 | 0.00 | 32 | 1005.8 |
| 20260510163102 | 62 | 360 | 0.0 | 3.0 | 0.00 | 0.00 | 0.00 | 35 | 1005.8 |
| 20260510161551 | 61 | 360 | 1.0 | 5.0 | 0.00 | 0.00 | 0.00 | 36 | 1005.8 |
| 20260510160058 | 59 | 360 | 1.0 | 4.0 | 0.00 | 0.00 | 0.00 | 38 | 1005.7 |
| 20260510154512 | 58 | 360 | 0.0 | 4.0 | 0.00 | 0.00 | 0.00 | 42 | 1005.7 |
| 20260510153012 | 55 | 360 | 0.0 | 4.0 | 0.00 | 0.00 | 0.00 | 45 | 1005.8 |
| 20260510151613 | 53 | 360 | 0.0 | 2.0 | 0.00 | 0.00 | 0.00 | 48 | 1005.6 |
| 20260510150100 | 52 | 360 | 0.0 | 2.0 | 0.00 | 0.00 | 0.00 | 49 | 1005.6 |
| 20260510144615 | 51 | 360 | 0.0 | 2.0 | 0.00 | 0.00 | 0.00 | 50 | 1005.8 |
| 20260510143055 | 51 | 360 | 0.0 | 2.0 | 0.00 | 0.00 | 0.00 | 50 | 1005.8 |
| 20260510141550 | 49 | 360 | 1.0 | 3.0 | 0.00 | 0.00 | 0.00 | 53 | 1005.8 |
| 20260510140046 | 46 | 360 | 0.0 | 0.0 | 0.00 | 0.00 | 0.00 | 54 | 1005.7 |
| 20260510134550 | 44 | 360 | 0.0 | 3.0 | 0.00 | 0.00 | 0.00 | 57 | 1005.6 |
| 20260510133042 | 42 | 360 | 0.0 | 2.0 | 0.00 | 0.00 | 0.00 | 57 | 1005.4 |
| 20260510131537 | 42 | 360 | 0.0 | 1.0 | 0.00 | 0.00 | 0.00 | 56 | 1004.6 |
| 20260510130032 | 42 | 360 | 0.0 | 1.0 | 0.00 | 0.00 | 0.00 | 55 | 1004.2 |
| 20260510124528 | 43 | 360 | 0.0 | 1.0 | 0.00 | 0.00 | 0.00 | 53 | 1004.1 |
| 20260510123033 | 43 | 360 | 0.0 | 1.0 | 0.00 | 0.00 | 0.00 | 51 | 1004.1 |
| 20260510121620 | 44 | 360 | 0.0 | 1.0 | 0.00 | 0.00 | 0.00 | 50 | 1004.2 |
| 20260510120021 | 45 | 360 | 0.0 | 1.0 | 0.00 | 0.00 | 0.00 | 48 | 1004.2 |
| 20260510114513 | 47 | 360 | 0.0 | 0.0 | 0.00 | 0.00 | 0.00 | 45 | 1004.1 |
| 20260510113017 | 48 | 360 | 0.0 | 0.0 | 0.00 | 0.00 | 0.00 | 45 | 1003.7 |
| 20260510111505 | 49 | 360 | 0.0 | 1.0 | 0.00 | 0.00 | 0.00 | 43 | 1003.7 |
| 20260510110008 | 49 | 360 | 0.0 | 1.0 | 0.00 | 0.00 | 0.00 | 42 | 1003.6 |
| 20260510104605 | 50 | 360 | 0.0 | 1.0 | 0.00 | 0.00 | 0.00 | 41 | 1003.3 |
| 20260510103059 | 50 | 360 | 0.0 | 2.0 | 0.00 | 0.00 | 0.00 | 43 | 1003.2 |
| 20260510101554 | 50 | 360 | 0.0 | 0.0 | 0.00 | 0.00 | 0.00 | 42 | 1003.0 |
| 20260510100052 | 51 | 360 | 0.0 | 0.0 | 0.00 | 0.00 | 0.00 | 42 | 1002.8 |
| 20260510094602 | 51 | 360 | 0.0 | 2.0 | 0.00 | 0.00 | 0.00 | 41 | 1002.7 |
| 20260510093111 | 51 | 360 | 1.0 | 5.0 | 0.00 | 0.00 | 0.00 | 41 | 1002.8 |
| 20260510091547 | 52 | 360 | 1.0 | 5.0 | 0.00 | 0.00 | 0.00 | 42 | 1002.6 |
| 20260510090043 | 52 | 360 | 0.0 | 5.0 | 0.00 | 0.00 | 0.00 | 39 | 1002.6 |
| 20260510084541 | 53 | 360 | 0.0 | 1.0 | 0.00 | 0.00 | 0.00 | 36 | 1002.4 |
| 20260510083043 | 53 | 360 | 0.0 | 1.0 | 0.00 | 0.00 | 0.00 | 33 | 1002.1 |
| 20260510081541 | 53 | 360 | 0.0 | 0.0 | 0.00 | 0.00 | 0.00 | 33 | 1001.9 |
| 20260510080036 | 52 | 360 | 0.0 | 1.0 | 0.00 | 0.00 | 0.00 | 34 | 1001.9 |
| 20260510074533 | 53 | 360 | 0.0 | 0.0 | 0.00 | 0.00 | 0.00 | 36 | 1002.2 |
| 20260510073039 | 54 | 360 | 0.0 | 0.0 | 0.00 | 0.00 | 0.00 | 35 | 1002.5 |
| 20260510071528 | 54 | 360 | 0.0 | 0.0 | 0.00 | 0.00 | 0.00 | 34 | 1002.9 |
| 20260510070029 | 54 | 360 | 0.0 | 1.0 | 0.00 | 0.00 | 0.00 | 34 | 1002.9 |
| 20260510064521 | 54 | 360 | 0.0 | 1.0 | 0.00 | 0.00 | 0.00 | 34 | 1002.5 |
| 20260510063019 | 54 | 360 | 0.0 | 0.0 | 0.00 | 0.00 | 0.00 | 34 | 1002.9 |
| 20260510061517 | 54 | 360 | 0.0 | 0.0 | 0.00 | 0.00 | 0.00 | 34 | 1002.7 |
| 20260510060016 | 56 | 360 | 0.0 | 0.0 | 0.00 | 0.00 | 0.00 | 32 | 1002.6 |
| 20260510054515 | 57 | 360 | 0.0 | 0.0 | 0.00 | 0.00 | 0.00 | 31 | 1002.6 |
| 20260510053041 | 58 | 360 | 0.0 | 0.0 | 0.00 | 0.00 | 0.00 | 30 | 1002.8 |
| 20260510051515 | 59 | 360 | 0.0 | 0.0 | 0.00 | 0.00 | 0.00 | 29 | 1002.7 |
| 20260510050012 | 59 | 360 | 0.0 | 2.0 | 0.00 | 0.00 | 0.00 | 26 | 1002.4 |
| 20260510044510 | 59 | 360 | 0.0 | 3.0 | 0.00 | 0.00 | 0.00 | 26 | 1002.4 |
| 20260510043014 | 59 | 360 | 0.0 | 4.0 | 0.00 | 0.00 | 0.00 | 26 | 1002.3 |
| 20260510041516 | 59 | 360 | 0.0 | 2.0 | 0.00 | 0.00 | 0.00 | 26 | 1002.4 |
| 20260510040009 | 59 | 360 | 0.0 | 1.0 | 0.00 | 0.00 | 0.00 | 26 | 1002.4 |
| 20260510034508 | 60 | 360 | 0.0 | 3.0 | 0.00 | 0.00 | 0.00 | 26 | 1002.3 |
| 20260510033007 | 60 | 360 | 0.0 | 5.0 | 0.00 | 0.00 | 0.00 | 26 | 1002.1 |
| 20260510031509 | 60 | 360 | 1.0 | 4.0 | 0.00 | 0.00 | 0.00 | 25 | 1002.0 |
| 20260510030004 | 61 | 360 | 0.0 | 3.0 | 0.00 | 0.00 | 0.00 | 25 | 1001.9 |
| 20260510024505 | 61 | 360 | 0.0 | 4.0 | 0.00 | 0.00 | 0.00 | 25 | 1001.6 |
| 20260510023006 | 61 | 360 | 0.0 | 3.0 | 0.00 | 0.00 | 0.00 | 25 | 1001.1 |
| 20260510021514 | 62 | 360 | 0.0 | 4.0 | 0.00 | 0.00 | 0.00 | 25 | 1001.1 |
| 20260510020059 | 63 | 360 | 0.0 | 3.0 | 0.00 | 0.00 | 0.00 | 24 | 1001.1 |
| 20260510014558 | 64 | 360 | 1.0 | 6.0 | 0.00 | 0.00 | 0.00 | 21 | 1000.8 |
| 20260510013057 | 65 | 360 | 1.0 | 4.0 | 0.00 | 0.00 | 0.00 | 21 | 1000.4 |
| 20260510011557 | 65 | 360 | 0.0 | 12.0 | 0.00 | 0.00 | 0.00 | 21 | 1000.3 |
| 20260510010054 | 65 | 360 | 0.0 | 5.0 | 0.00 | 0.00 | 0.00 | 19 | 1000.0 |
| 20260510004558 | 66 | 360 | 0.0 | 3.0 | 0.00 | 0.00 | 0.00 | 19 | 1000.0 |
| 20260510003054 | 66 | 360 | 0.0 | 11.0 | 0.00 | 0.00 | 0.00 | 19 | 999.8 |
| 20260510001552 | 67 | 360 | 1.0 | 8.0 | 0.00 | 0.00 | 0.00 | 18 | 999.6 |
| 20260510000033 | 68 | 360 | 1.0 | 11.0 | 0.00 | 0.00 | 0.00 | 19 | 999.5 |
| 20260509234521 | 68 | 360 | 2.0 | 11.0 | 0.00 | 0.00 | 0.00 | 18 | 999.4 |
| 20260509233018 | 68 | 360 | 1.0 | 15.0 | 0.00 | 0.00 | 0.00 | 18 | 999.5 |
| 20260509231518 | 69 | 360 | 2.0 | 9.0 | 0.00 | 0.00 | 0.00 | 18 | 999.4 |